sensor_id;sensor_type;location;lat;lon;timestamp;temperature;humidity
69054;DHT22;56125;52.242;4.756;2023-03-23T00:03:04;18.70;52.50
69054;DHT22;56125;52.242;4.756;2023-03-23T00:08:05;18.60;52.50
69054;DHT22;56125;52.242;4.756;2023-03-23T00:13:06;18.60;52.40
69054;DHT22;56125;52.242;4.756;2023-03-23T00:18:07;18.60;52.40
69054;DHT22;56125;52.242;4.756;2023-03-23T00:23:08;18.50;52.30
69054;DHT22;56125;52.242;4.756;2023-03-23T00:28:09;18.50;52.20
69054;DHT22;56125;52.242;4.756;2023-03-23T00:33:13;18.50;52.30
69054;DHT22;56125;52.242;4.756;2023-03-23T00:38:18;18.40;52.20
69054;DHT22;56125;52.242;4.756;2023-03-23T00:43:19;18.50;52.20
69054;DHT22;56125;52.242;4.756;2023-03-23T00:48:24;17.90;51.80
69054;DHT22;56125;52.242;4.756;2023-03-23T00:53:25;18.50;52.10
69054;DHT22;56125;52.242;4.756;2023-03-23T00:58:26;18.60;52.30
69054;DHT22;56125;52.242;4.756;2023-03-23T01:03:27;18.50;52.10
69054;DHT22;56125;52.242;4.756;2023-03-23T01:08:29;19.00;52.40
69054;DHT22;56125;52.242;4.756;2023-03-23T01:13:32;18.50;52.00
69054;DHT22;56125;52.242;4.756;2023-03-23T01:18:33;18.50;52.10
69054;DHT22;56125;52.242;4.756;2023-03-23T01:23:34;18.50;52.60
69054;DHT22;56125;52.242;4.756;2023-03-23T01:28:36;18.50;52.00
69054;DHT22;56125;52.242;4.756;2023-03-23T01:33:39;18.70;52.10
69054;DHT22;56125;52.242;4.756;2023-03-23T01:38:42;18.50;52.90
69054;DHT22;56125;52.242;4.756;2023-03-23T01:49:37;18.50;51.90
69054;DHT22;56125;52.242;4.756;2023-03-23T01:54:40;18.50;51.90
69054;DHT22;56125;52.242;4.756;2023-03-23T01:59:48;18.50;52.00
69054;DHT22;56125;52.242;4.756;2023-03-23T02:04:50;18.50;51.90
69054;DHT22;56125;52.242;4.756;2023-03-23T02:09:52;18.50;51.80
69054;DHT22;56125;52.242;4.756;2023-03-23T02:14:53;18.50;51.80
69054;DHT22;56125;52.242;4.756;2023-03-23T02:25:46;18.50;51.80
69054;DHT22;56125;52.242;4.756;2023-03-23T02:36:28;18.40;51.80
69054;DHT22;56125;52.242;4.756;2023-03-23T02:41:38;18.50;51.80
69054;DHT22;56125;52.242;4.756;2023-03-23T02:46:41;18.50;51.90
69054;DHT22;56125;52.242;4.756;2023-03-23T02:51:45;18.50;51.80
69054;DHT22;56125;52.242;4.756;2023-03-23T02:56:47;18.40;51.80
69054;DHT22;56125;52.242;4.756;2023-03-23T03:01:55;18.40;51.70
69054;DHT22;56125;52.242;4.756;2023-03-23T03:07:10;18.60;52.00
69054;DHT22;56125;52.242;4.756;2023-03-23T03:12:36;18.40;51.80
69054;DHT22;56125;52.242;4.756;2023-03-23T03:17:45;18.40;51.80
69054;DHT22;56125;52.242;4.756;2023-03-23T03:22:50;18.30;51.90
69054;DHT22;56125;52.242;4.756;2023-03-23T03:27:53;18.40;52.00
69054;DHT22;56125;52.242;4.756;2023-03-23T03:32:55;18.40;52.00
69054;DHT22;56125;52.242;4.756;2023-03-23T03:37:56;18.70;52.20
69054;DHT22;56125;52.242;4.756;2023-03-23T03:42:58;18.40;52.00
69054;DHT22;56125;52.242;4.756;2023-03-23T03:48:00;18.40;52.10
69054;DHT22;56125;52.242;4.756;2023-03-23T03:53:02;18.40;52.10
69054;DHT22;56125;52.242;4.756;2023-03-23T03:58:04;18.40;52.00
69054;DHT22;56125;52.242;4.756;2023-03-23T04:03:05;18.40;52.10
69054;DHT22;56125;52.242;4.756;2023-03-23T04:08:06;18.40;52.20
69054;DHT22;56125;52.242;4.756;2023-03-23T04:13:07;18.40;52.10
69054;DHT22;56125;52.242;4.756;2023-03-23T04:18:08;18.40;52.10
69054;DHT22;56125;52.242;4.756;2023-03-23T04:23:09;18.40;52.10
69054;DHT22;56125;52.242;4.756;2023-03-23T04:28:10;18.40;52.30
69054;DHT22;56125;52.242;4.756;2023-03-23T04:33:12;18.40;52.20
69054;DHT22;56125;52.242;4.756;2023-03-23T04:38:17;18.40;52.30
69054;DHT22;56125;52.242;4.756;2023-03-23T04:43:22;18.40;52.30
69054;DHT22;56125;52.242;4.756;2023-03-23T04:48:26;18.40;52.40
69054;DHT22;56125;52.242;4.756;2023-03-23T04:53:27;18.40;52.40
69054;DHT22;56125;52.242;4.756;2023-03-23T04:58:28;18.40;52.40
69054;DHT22;56125;52.242;4.756;2023-03-23T05:03:29;18.40;52.50
69054;DHT22;56125;52.242;4.756;2023-03-23T05:08:30;18.40;52.40
69054;DHT22;56125;52.242;4.756;2023-03-23T05:13:32;18.40;52.30
69054;DHT22;56125;52.242;4.756;2023-03-23T05:18:33;18.40;52.30
69054;DHT22;56125;52.242;4.756;2023-03-23T05:23:34;18.40;52.30
69054;DHT22;56125;52.242;4.756;2023-03-23T05:28:36;18.80;52.50
69054;DHT22;56125;52.242;4.756;2023-03-23T05:33:38;18.40;52.20
69054;DHT22;56125;52.242;4.756;2023-03-23T05:38:40;18.40;52.20
69054;DHT22;56125;52.242;4.756;2023-03-23T05:43:45;18.40;52.10
69054;DHT22;56125;52.242;4.756;2023-03-23T05:48:46;18.50;52.20
69054;DHT22;56125;52.242;4.756;2023-03-23T05:53:48;18.40;52.10
69054;DHT22;56125;52.242;4.756;2023-03-23T05:58:49;18.40;52.10
69054;DHT22;56125;52.242;4.756;2023-03-23T06:03:50;18.40;52.30
69054;DHT22;56125;52.242;4.756;2023-03-23T06:08:55;18.50;52.30
69054;DHT22;56125;52.242;4.756;2023-03-23T06:13:57;18.40;52.10
69054;DHT22;56125;52.242;4.756;2023-03-23T06:18:58;18.40;52.30
69054;DHT22;56125;52.242;4.756;2023-03-23T06:24:01;18.40;52.20
69054;DHT22;56125;52.242;4.756;2023-03-23T06:29:03;18.50;52.30
69054;DHT22;56125;52.242;4.756;2023-03-23T06:34:11;18.50;52.20
69054;DHT22;56125;52.242;4.756;2023-03-23T06:39:12;18.50;52.30
69054;DHT22;56125;52.242;4.756;2023-03-23T06:44:15;18.50;52.00
69054;DHT22;56125;52.242;4.756;2023-03-23T06:49:16;18.50;52.10
69054;DHT22;56125;52.242;4.756;2023-03-23T06:54:17;18.50;52.00
69054;DHT22;56125;52.242;4.756;2023-03-23T06:59:18;18.50;51.90
69054;DHT22;56125;52.242;4.756;2023-03-23T07:04:19;18.50;51.90
69054;DHT22;56125;52.242;4.756;2023-03-23T07:09:20;18.60;52.00
69054;DHT22;56125;52.242;4.756;2023-03-23T07:14:21;18.50;52.00
69054;DHT22;56125;52.242;4.756;2023-03-23T07:19:22;18.50;51.90
69054;DHT22;56125;52.242;4.756;2023-03-23T07:24:24;18.50;51.80
69054;DHT22;56125;52.242;4.756;2023-03-23T07:29:25;18.60;51.70
69054;DHT22;56125;52.242;4.756;2023-03-23T07:34:26;18.20;51.40
69054;DHT22;56125;52.242;4.756;2023-03-23T07:39:27;18.50;51.50
69054;DHT22;56125;52.242;4.756;2023-03-23T07:44:28;18.50;51.50
69054;DHT22;56125;52.242;4.756;2023-03-23T07:49:29;18.50;51.40
69054;DHT22;56125;52.242;4.756;2023-03-23T07:54:31;18.50;51.40
69054;DHT22;56125;52.242;4.756;2023-03-23T07:59:32;18.50;51.30
69054;DHT22;56125;52.242;4.756;2023-03-23T08:04:33;18.60;51.20
69054;DHT22;56125;52.242;4.756;2023-03-23T08:09:38;18.50;51.30
69054;DHT22;56125;52.242;4.756;2023-03-23T08:14:39;18.60;51.20
69054;DHT22;56125;52.242;4.756;2023-03-23T08:19:42;18.50;51.20
69054;DHT22;56125;52.242;4.756;2023-03-23T08:24:43;18.60;51.20
69054;DHT22;56125;52.242;4.756;2023-03-23T08:29:46;18.60;51.10
69054;DHT22;56125;52.242;4.756;2023-03-23T08:34:47;18.60;51.10
69054;DHT22;56125;52.242;4.756;2023-03-23T08:39:51;18.60;51.10
69054;DHT22;56125;52.242;4.756;2023-03-23T08:44:52;18.60;51.10
69054;DHT22;56125;52.242;4.756;2023-03-23T08:49:53;18.70;51.20
69054;DHT22;56125;52.242;4.756;2023-03-23T08:54:55;18.70;51.10
69054;DHT22;56125;52.242;4.756;2023-03-23T08:59:57;18.70;51.30
69054;DHT22;56125;52.242;4.756;2023-03-23T09:05:00;18.50;51.10
69054;DHT22;56125;52.242;4.756;2023-03-23T09:10:02;18.70;51.20
69054;DHT22;56125;52.242;4.756;2023-03-23T09:15:04;18.70;51.20
69054;DHT22;56125;52.242;4.756;2023-03-23T09:20:11;18.70;51.20
69054;DHT22;56125;52.242;4.756;2023-03-23T09:25:16;18.70;51.00
69054;DHT22;56125;52.242;4.756;2023-03-23T09:30:20;18.70;51.60
69054;DHT22;56125;52.242;4.756;2023-03-23T09:35:21;18.70;51.00
69054;DHT22;56125;52.242;4.756;2023-03-23T09:40:25;18.70;50.90
69054;DHT22;56125;52.242;4.756;2023-03-23T09:51:21;18.70;50.70
69054;DHT22;56125;52.242;4.756;2023-03-23T09:56:24;18.80;50.60
69054;DHT22;56125;52.242;4.756;2023-03-23T10:01:32;18.80;50.70
69054;DHT22;56125;52.242;4.756;2023-03-23T10:06:34;18.80;50.50
69054;DHT22;56125;52.242;4.756;2023-03-23T10:12:04;18.80;50.50
69054;DHT22;56125;52.242;4.756;2023-03-23T10:22:40;18.80;50.30
69054;DHT22;56125;52.242;4.756;2023-03-23T10:33:13;18.80;50.30
69054;DHT22;56125;52.242;4.756;2023-03-23T10:38:23;18.80;50.30
69054;DHT22;56125;52.242;4.756;2023-03-23T10:43:26;19.50;50.50
69054;DHT22;56125;52.242;4.756;2023-03-23T10:48:35;18.70;50.10
69054;DHT22;56125;52.242;4.756;2023-03-23T10:53:43;18.80;50.10
69054;DHT22;56125;52.242;4.756;2023-03-23T10:58:44;18.80;50.60
69054;DHT22;56125;52.242;4.756;2023-03-23T11:03:48;18.90;50.00
69054;DHT22;56125;52.242;4.756;2023-03-23T11:09:10;19.00;50.00
69054;DHT22;56125;52.242;4.756;2023-03-23T11:14:24;18.80;49.80
69054;DHT22;56125;52.242;4.756;2023-03-23T11:19:29;18.50;49.70
69054;DHT22;56125;52.242;4.756;2023-03-23T11:24:42;18.90;49.80
69054;DHT22;56125;52.242;4.756;2023-03-23T11:30:08;18.90;49.90
69054;DHT22;56125;52.242;4.756;2023-03-23T11:35:26;18.40;49.40
69054;DHT22;56125;52.242;4.756;2023-03-23T11:40:30;18.90;49.60
69054;DHT22;56125;52.242;4.756;2023-03-23T11:50:43;18.90;49.60
69054;DHT22;56125;52.242;4.756;2023-03-23T12:00:55;18.90;49.40
69054;DHT22;56125;52.242;4.756;2023-03-23T12:11:31;18.90;49.50
69054;DHT22;56125;52.242;4.756;2023-03-23T12:16:47;18.80;49.40
69054;DHT22;56125;52.242;4.756;2023-03-23T12:37:55;18.90;49.30
69054;DHT22;56125;52.242;4.756;2023-03-23T12:48:20;19.00;49.20
69054;DHT22;56125;52.242;4.756;2023-03-23T12:53:30;18.30;49.90
69054;DHT22;56125;52.242;4.756;2023-03-23T12:58:36;18.80;49.10
69054;DHT22;56125;52.242;4.756;2023-03-23T13:03:58;18.90;49.20
69054;DHT22;56125;52.242;4.756;2023-03-23T13:25:43;19.00;49.00
69054;DHT22;56125;52.242;4.756;2023-03-23T13:31:03;19.00;49.10
69054;DHT22;56125;52.242;4.756;2023-03-23T13:36:13;19.00;49.10
69054;DHT22;56125;52.242;4.756;2023-03-23T13:41:17;18.90;49.00
69054;DHT22;56125;52.242;4.756;2023-03-23T13:56:40;19.00;48.70
69054;DHT22;56125;52.242;4.756;2023-03-23T14:01:42;19.00;48.70
69054;DHT22;56125;52.242;4.756;2023-03-23T14:06:46;19.00;48.50
69054;DHT22;56125;52.242;4.756;2023-03-23T14:16:51;19.00;48.70
69054;DHT22;56125;52.242;4.756;2023-03-23T14:21:58;19.00;48.80
69054;DHT22;56125;52.242;4.756;2023-03-23T14:27:20;19.10;48.70
69054;DHT22;56125;52.242;4.756;2023-03-23T14:32:21;19.00;48.70
69054;DHT22;56125;52.242;4.756;2023-03-23T14:37:26;19.00;48.60
69054;DHT22;56125;52.242;4.756;2023-03-23T14:42:30;19.10;48.70
69054;DHT22;56125;52.242;4.756;2023-03-23T14:47:40;19.10;48.60
69054;DHT22;56125;52.242;4.756;2023-03-23T14:52:43;19.10;48.40
69054;DHT22;56125;52.242;4.756;2023-03-23T14:57:49;19.10;48.40
69054;DHT22;56125;52.242;4.756;2023-03-23T15:02:54;19.10;48.40
69054;DHT22;56125;52.242;4.756;2023-03-23T15:08:02;19.10;48.40
69054;DHT22;56125;52.242;4.756;2023-03-23T15:13:04;19.10;48.40
69054;DHT22;56125;52.242;4.756;2023-03-23T15:18:16;19.10;48.30
69054;DHT22;56125;52.242;4.756;2023-03-23T15:23:30;19.80;48.90
69054;DHT22;56125;52.242;4.756;2023-03-23T15:28:32;19.10;48.40
69054;DHT22;56125;52.242;4.756;2023-03-23T15:33:35;19.10;48.60
69054;DHT22;56125;52.242;4.756;2023-03-23T15:38:37;19.10;48.50
69054;DHT22;56125;52.242;4.756;2023-03-23T15:43:53;19.10;48.60
69054;DHT22;56125;52.242;4.756;2023-03-23T15:53:58;19.10;48.70
69054;DHT22;56125;52.242;4.756;2023-03-23T15:59:00;19.10;49.00
69054;DHT22;56125;52.242;4.756;2023-03-23T16:04:05;19.10;49.00
69054;DHT22;56125;52.242;4.756;2023-03-23T16:09:11;19.10;49.10
69054;DHT22;56125;52.242;4.756;2023-03-23T16:14:13;19.10;49.00
69054;DHT22;56125;52.242;4.756;2023-03-23T16:19:15;19.10;48.90
69054;DHT22;56125;52.242;4.756;2023-03-23T16:24:16;19.10;48.90
69054;DHT22;56125;52.242;4.756;2023-03-23T16:29:17;19.00;48.70
69054;DHT22;56125;52.242;4.756;2023-03-23T16:34:18;19.10;48.70
69054;DHT22;56125;52.242;4.756;2023-03-23T16:39:19;19.00;48.70
69054;DHT22;56125;52.242;4.756;2023-03-23T16:44:20;19.00;48.80
69054;DHT22;56125;52.242;4.756;2023-03-23T16:49:21;19.00;48.80
69054;DHT22;56125;52.242;4.756;2023-03-23T16:54:22;19.00;48.80
69054;DHT22;56125;52.242;4.756;2023-03-23T16:59:26;19.00;48.80
69054;DHT22;56125;52.242;4.756;2023-03-23T17:04:31;19.00;49.00
69054;DHT22;56125;52.242;4.756;2023-03-23T17:09:33;19.00;48.80
69054;DHT22;56125;52.242;4.756;2023-03-23T17:14:34;19.00;48.90
69054;DHT22;56125;52.242;4.756;2023-03-23T17:19:35;19.00;48.90
69054;DHT22;56125;52.242;4.756;2023-03-23T17:24:36;19.00;49.00
69054;DHT22;56125;52.242;4.756;2023-03-23T17:29:37;19.00;49.00
69054;DHT22;56125;52.242;4.756;2023-03-23T17:34:38;19.00;49.00
69054;DHT22;56125;52.242;4.756;2023-03-23T17:39:39;18.90;49.00
69054;DHT22;56125;52.242;4.756;2023-03-23T17:44:41;18.90;49.00
69054;DHT22;56125;52.242;4.756;2023-03-23T17:49:42;18.90;49.10
69054;DHT22;56125;52.242;4.756;2023-03-23T17:54:43;18.90;48.90
69054;DHT22;56125;52.242;4.756;2023-03-23T17:59:44;19.10;49.10
69054;DHT22;56125;52.242;4.756;2023-03-23T18:04:45;18.80;49.00
69054;DHT22;56125;52.242;4.756;2023-03-23T18:09:46;18.90;49.40
69054;DHT22;56125;52.242;4.756;2023-03-23T18:14:47;18.50;50.10
69054;DHT22;56125;52.242;4.756;2023-03-23T18:19:49;18.90;51.10
69054;DHT22;56125;52.242;4.756;2023-03-23T18:24:50;18.90;51.70
69054;DHT22;56125;52.242;4.756;2023-03-23T18:29:51;18.80;50.90
69054;DHT22;56125;52.242;4.756;2023-03-23T18:34:52;18.90;50.80
69054;DHT22;56125;52.242;4.756;2023-03-23T18:39:53;18.90;51.10
69054;DHT22;56125;52.242;4.756;2023-03-23T18:44:54;18.80;51.00
69054;DHT22;56125;52.242;4.756;2023-03-23T18:49:55;18.90;51.20
69054;DHT22;56125;52.242;4.756;2023-03-23T18:54:57;18.90;51.50
69054;DHT22;56125;52.242;4.756;2023-03-23T18:59:58;18.90;51.70
69054;DHT22;56125;52.242;4.756;2023-03-23T19:04:59;18.80;51.90
69054;DHT22;56125;52.242;4.756;2023-03-23T19:10:00;18.80;52.00
69054;DHT22;56125;52.242;4.756;2023-03-23T19:15:02;18.90;52.10
69054;DHT22;56125;52.242;4.756;2023-03-23T19:20:04;18.90;52.40
69054;DHT22;56125;52.242;4.756;2023-03-23T19:25:07;18.90;52.80
69054;DHT22;56125;52.242;4.756;2023-03-23T19:30:09;18.90;52.90
69054;DHT22;56125;52.242;4.756;2023-03-23T19:35:10;18.80;53.80
69054;DHT22;56125;52.242;4.756;2023-03-23T19:40:11;18.80;53.60
69054;DHT22;56125;52.242;4.756;2023-03-23T19:45:13;18.30;53.20
69054;DHT22;56125;52.242;4.756;2023-03-23T19:50:14;18.90;53.50
69054;DHT22;56125;52.242;4.756;2023-03-23T19:55:15;18.80;54.00
69054;DHT22;56125;52.242;4.756;2023-03-23T20:00:16;18.90;53.70
69054;DHT22;56125;52.242;4.756;2023-03-23T20:05:17;18.80;54.20
69054;DHT22;56125;52.242;4.756;2023-03-23T20:10:19;18.80;54.20
69054;DHT22;56125;52.242;4.756;2023-03-23T20:15:20;18.90;54.40
69054;DHT22;56125;52.242;4.756;2023-03-23T20:20:23;18.80;54.10
69054;DHT22;56125;52.242;4.756;2023-03-23T20:25:24;18.90;54.10
69054;DHT22;56125;52.242;4.756;2023-03-23T20:30:25;18.90;53.90
69054;DHT22;56125;52.242;4.756;2023-03-23T20:35:27;18.80;54.70
69054;DHT22;56125;52.242;4.756;2023-03-23T20:40:29;18.80;53.70
69054;DHT22;56125;52.242;4.756;2023-03-23T20:45:30;18.80;53.70
69054;DHT22;56125;52.242;4.756;2023-03-23T20:50:32;18.80;53.60
69054;DHT22;56125;52.242;4.756;2023-03-23T20:55:33;19.40;53.80
69054;DHT22;56125;52.242;4.756;2023-03-23T21:00:34;18.80;53.50
69054;DHT22;56125;52.242;4.756;2023-03-23T21:05:35;18.70;53.20
69054;DHT22;56125;52.242;4.756;2023-03-23T21:10:37;18.80;53.40
69054;DHT22;56125;52.242;4.756;2023-03-23T21:15:39;18.80;53.30
69054;DHT22;56125;52.242;4.756;2023-03-23T21:20:40;18.80;53.20
69054;DHT22;56125;52.242;4.756;2023-03-23T21:25:42;18.80;53.30
69054;DHT22;56125;52.242;4.756;2023-03-23T21:30:44;18.80;53.30
69054;DHT22;56125;52.242;4.756;2023-03-23T21:35:47;18.80;53.30
69054;DHT22;56125;52.242;4.756;2023-03-23T21:40:48;18.80;54.30
69054;DHT22;56125;52.242;4.756;2023-03-23T21:45:49;18.80;53.50
69054;DHT22;56125;52.242;4.756;2023-03-23T21:50:55;18.80;53.60
69054;DHT22;56125;52.242;4.756;2023-03-23T21:55:56;18.80;53.70
69054;DHT22;56125;52.242;4.756;2023-03-23T22:00:58;18.80;53.60
69054;DHT22;56125;52.242;4.756;2023-03-23T22:06:11;18.80;53.50
69054;DHT22;56125;52.242;4.756;2023-03-23T22:11:18;18.90;53.70
69054;DHT22;56125;52.242;4.756;2023-03-23T22:16:20;18.80;53.60
69054;DHT22;56125;52.242;4.756;2023-03-23T22:21:23;18.80;53.60
69054;DHT22;56125;52.242;4.756;2023-03-23T22:26:28;18.80;53.50
69054;DHT22;56125;52.242;4.756;2023-03-23T22:31:32;19.20;53.70
69054;DHT22;56125;52.242;4.756;2023-03-23T22:36:33;18.80;53.40
69054;DHT22;56125;52.242;4.756;2023-03-23T22:41:38;18.80;54.00
69054;DHT22;56125;52.242;4.756;2023-03-23T22:46:40;18.80;53.30
69054;DHT22;56125;52.242;4.756;2023-03-23T22:51:41;18.90;53.50
69054;DHT22;56125;52.242;4.756;2023-03-23T22:56:42;18.90;53.30
69054;DHT22;56125;52.242;4.756;2023-03-23T23:01:43;18.90;53.30
69054;DHT22;56125;52.242;4.756;2023-03-23T23:06:44;18.80;53.20
69054;DHT22;56125;52.242;4.756;2023-03-23T23:11:45;18.80;53.20
69054;DHT22;56125;52.242;4.756;2023-03-23T23:16:46;18.90;53.40
69054;DHT22;56125;52.242;4.756;2023-03-23T23:21:47;18.90;53.40
69054;DHT22;56125;52.242;4.756;2023-03-23T23:26:49;18.80;53.40
69054;DHT22;56125;52.242;4.756;2023-03-23T23:31:50;18.80;53.40
69054;DHT22;56125;52.242;4.756;2023-03-23T23:36:51;18.80;53.40
69054;DHT22;56125;52.242;4.756;2023-03-23T23:41:52;18.70;53.40
69054;DHT22;56125;52.242;4.756;2023-03-23T23:46:53;18.90;54.50
69054;DHT22;56125;52.242;4.756;2023-03-23T23:51:57;18.80;53.60
69054;DHT22;56125;52.242;4.756;2023-03-23T23:56:59;18.90;53.60
